createdAt,value
2022-11-23T00:01:57.842Z,97435.7
2022-11-23T00:07:34.690Z,97443.3
2022-11-23T00:13:12.616Z,97426.1
2022-11-23T00:18:53.550Z,97430.5
2022-11-23T00:24:29.018Z,97420.7
2022-11-23T00:30:06.560Z,97413.8
2022-11-23T00:35:41.381Z,97387.1
2022-11-23T00:41:16.868Z,97393
2022-11-23T00:46:51.973Z,97363.6
2022-11-23T00:52:27.177Z,97342.4
2022-11-23T00:58:02.666Z,97316.5
2022-11-23T01:03:37.895Z,97311.1
2022-11-23T01:09:13.191Z,97313
2022-11-23T01:14:48.353Z,97308.9
2022-11-23T01:20:23.405Z,97289.9
2022-11-23T01:25:58.739Z,97275.8
2022-11-23T01:31:34.470Z,97265.3
2022-11-23T01:37:09.573Z,97249
2022-11-23T01:42:44.487Z,97230.1
2022-11-23T01:48:19.415Z,97228.2
2022-11-23T01:53:55.482Z,97218.6
2022-11-23T01:59:31.985Z,97226.9
2022-11-23T02:05:09.484Z,97244.1
2022-11-23T02:10:44.946Z,97248.2
2022-11-23T02:16:20.132Z,97269.9
2022-11-23T02:21:55.303Z,97272.5
2022-11-23T02:27:30.299Z,97227.7
2022-11-23T02:33:05.304Z,97204.7
2022-11-23T02:38:40.659Z,97201.2
2022-11-23T02:44:15.462Z,97198.6
2022-11-23T02:49:50.623Z,97199.5
2022-11-23T02:55:25.861Z,97196.5
2022-11-23T03:01:01.702Z,97215.3
2022-11-23T03:06:37.500Z,97208.3
2022-11-23T03:12:13.881Z,97207.5
2022-11-23T03:17:48.897Z,97216.4
2022-11-23T03:23:24.004Z,97212.5
2022-11-23T03:28:59.235Z,97209.9
2022-11-23T03:34:34.682Z,97200.5
2022-11-23T03:40:09.734Z,97184.2
2022-11-23T03:45:44.975Z,97175.5
2022-11-23T03:51:20.156Z,97172.9
2022-11-23T03:56:56.193Z,97166.4
2022-11-23T04:02:31.585Z,97157.5
2022-11-23T04:08:06.834Z,97134.4
2022-11-23T04:13:45.851Z,97123.7
2022-11-23T04:19:20.802Z,97123
2022-11-23T04:24:56.198Z,97124.4
2022-11-23T04:30:32.531Z,97110.2
2022-11-23T04:36:08.674Z,97110.8
2022-11-23T04:41:44.140Z,97113.3
2022-11-23T04:47:19.139Z,97123.2
2022-11-23T04:52:54.282Z,97122.8
2022-11-23T04:58:35.133Z,97119.8
2022-11-23T05:04:18.270Z,97137.2
2022-11-23T05:09:53.491Z,97136.8
2022-11-23T05:15:28.553Z,97140.1
2022-11-23T05:21:03.487Z,97156.2
2022-11-23T05:26:38.943Z,97157.5
2022-11-23T05:32:13.867Z,97180.6
2022-11-23T05:37:49.387Z,97185.7
2022-11-23T05:43:24.752Z,97200.4
2022-11-23T05:49:02.918Z,97226.4
2022-11-23T05:54:37.849Z,97249.6
2022-11-23T06:00:13.293Z,97269.6
2022-11-23T06:05:48.830Z,97298.3
2022-11-23T06:11:24.009Z,97325.4
2022-11-23T06:16:59.307Z,97361
2022-11-23T06:22:34.432Z,97394.7
2022-11-23T06:28:09.998Z,97397.7
2022-11-23T06:33:45.306Z,97415.6
2022-11-23T06:39:20.798Z,97443.8
2022-11-23T06:44:55.576Z,97465.6
2022-11-23T06:50:30.433Z,97494.9
2022-11-23T06:56:05.622Z,97499.3
2022-11-23T07:01:42.209Z,97524.8
2022-11-23T07:07:18.038Z,97526.2
2022-11-23T07:12:54.341Z,97525.6
2022-11-23T07:18:29.915Z,97541
2022-11-23T07:24:07.164Z,97560.6
2022-11-23T07:29:42.388Z,97574.4
2022-11-23T07:35:17.384Z,97583.3
2022-11-23T07:40:53.145Z,97613.1
2022-11-23T07:46:50.326Z,97609.5
2022-11-23T07:52:23.304Z,97610
2022-11-23T07:57:58.272Z,97603.1
2022-11-23T08:03:34.203Z,97608.9
2022-11-23T08:09:09.880Z,97625.9
2022-11-23T08:14:45.700Z,97630.5
2022-11-23T08:20:21.173Z,97656.1
2022-11-23T08:25:56.516Z,97661.6
2022-11-23T08:31:31.993Z,97656.6
2022-11-23T08:37:08.352Z,97677.8
2022-11-23T08:42:47.418Z,97664.8
2022-11-23T08:48:43.957Z,97721.5
2022-11-23T08:54:16.718Z,97716.4
2022-11-23T09:00:01.244Z,97792.9
2022-11-23T09:05:38.115Z,97814.5
2022-11-23T09:11:13.858Z,97852.8
2022-11-23T09:16:53.338Z,97877.9
2022-11-23T09:22:28.295Z,97896.4
2022-11-23T09:28:03.346Z,97910.2
2022-11-23T09:33:42.777Z,97935.2
2022-11-23T09:39:17.869Z,97943.6
2022-11-23T09:45:03.594Z,97957.5
2022-11-23T09:50:38.355Z,97977.1
2022-11-23T09:56:14.711Z,97981.9
2022-11-23T10:01:50.319Z,97995
2022-11-23T10:08:52.677Z,98021.5
2022-11-23T10:14:33.510Z,98038.4
2022-11-23T10:20:13.450Z,98033.6
2022-11-23T10:25:51.399Z,98057.3
2022-11-23T10:31:36.113Z,98072.2
2022-11-23T10:37:18.141Z,98071.7
2022-11-23T10:42:57.063Z,98058.9
2022-11-23T10:48:32.911Z,98061.6
2022-11-23T10:54:10.816Z,98059.5
2022-11-23T10:59:46.539Z,98052.7
2022-11-23T11:06:08.407Z,98064.7
2022-11-23T11:11:46.894Z,98078.4
2022-11-23T11:17:22.776Z,98096.2
2022-11-23T11:23:07.046Z,98092.5
2022-11-23T11:28:41.885Z,98110.2
2022-11-23T11:34:17.148Z,98112.7
2022-11-23T11:39:52.352Z,98136.7
2022-11-23T11:45:27.944Z,98122.2
2022-11-23T11:51:03.243Z,98132.2
2022-11-23T11:56:38.751Z,98135.8
2022-11-23T12:02:14.512Z,98143.9
2022-11-23T12:07:50.052Z,98135.7
2022-11-23T12:13:25.660Z,98135
2022-11-23T12:19:00.895Z,98151.2
2022-11-23T12:24:36.724Z,98155.6
2022-11-23T12:30:12.341Z,98155.1
2022-11-23T12:35:48.401Z,98177.6
2022-11-23T12:41:28.101Z,98186.6
2022-11-23T12:47:27.266Z,98177.2
2022-11-23T12:53:23.838Z,98193.6
2022-11-23T12:58:59.680Z,98194.7
2022-11-23T13:04:44.775Z,98198.3
2022-11-23T13:10:20.023Z,98192.6
2022-11-23T13:15:56.496Z,98200.9
2022-11-23T13:21:33.246Z,98207.1
2022-11-23T13:27:08.692Z,98218.3
2022-11-23T13:32:53.244Z,98218.3
2022-11-23T13:38:39.152Z,98236.9
2022-11-23T13:44:15.237Z,98234.4
2022-11-23T13:49:59.014Z,98236.8
2022-11-23T13:55:46.427Z,98245.2
2022-11-23T14:01:52.944Z,98255.2
2022-11-23T14:07:33.086Z,98273.8
2022-11-23T14:13:16.315Z,98269.9
2022-11-23T14:18:51.948Z,98276.2
2022-11-23T14:24:27.579Z,98291.7
2022-11-23T14:30:02.927Z,98302.3
2022-11-23T14:35:39.407Z,98297.5
2022-11-23T14:41:15.085Z,98289.9
2022-11-23T14:46:57.393Z,98299.8
2022-11-23T14:52:32.589Z,98307.9
2022-11-23T14:58:07.337Z,98311.5
2022-11-23T15:03:52.404Z,98319.6
2022-11-23T15:09:31.624Z,98320.1
2022-11-23T15:15:18.572Z,98336.2
2022-11-23T15:21:02.303Z,98339.8
2022-11-23T15:27:27.587Z,98343.2
2022-11-23T15:33:04.078Z,98356.5
2022-11-23T15:38:40.065Z,98360
2022-11-23T15:44:16.124Z,98362.9
2022-11-23T15:49:50.974Z,98363.4
2022-11-23T15:55:26.192Z,98365.7
2022-11-23T16:01:07.875Z,98363.6
2022-11-23T16:06:43.834Z,98360.9
2022-11-23T16:12:18.822Z,98373.7
2022-11-23T16:17:54.484Z,98383.4
2022-11-23T16:23:30.404Z,98385
2022-11-23T16:29:06.957Z,98396
2022-11-23T16:34:44.580Z,98400.1
2022-11-23T16:40:19.729Z,98408.4
2022-11-23T16:45:55.613Z,98413.8
2022-11-23T16:51:32.307Z,98408.3
2022-11-23T16:57:07.263Z,98414.8
2022-11-23T17:02:42.611Z,98426.9
2022-11-23T17:08:39.294Z,98432.2
2022-11-23T17:14:26.703Z,98448.8
2022-11-23T17:20:06.306Z,98453.6
2022-11-23T17:25:42.854Z,98466.7
2022-11-23T17:31:18.657Z,98473.7
2022-11-23T17:36:55.274Z,98484.3
2022-11-23T17:42:30.921Z,98480.5
2022-11-23T17:48:15.858Z,98481.5
2022-11-23T17:53:51.533Z,98482.9
2022-11-23T17:59:26.751Z,98485.5
2022-11-23T18:05:02.435Z,98494.1
2022-11-23T18:10:38.239Z,98497
2022-11-23T18:16:14.030Z,98508
2022-11-23T18:21:49.456Z,98511.2
2022-11-23T18:27:25.239Z,98522.5
2022-11-23T18:33:00.554Z,98533.5
2022-11-23T18:38:35.908Z,98526
2022-11-23T18:44:11.348Z,98528.6
2022-11-23T18:50:07.873Z,98536.8
2022-11-23T18:55:48.866Z,98547.9
2022-11-23T19:01:24.549Z,98555.6
2022-11-23T19:07:48.059Z,98559.6
2022-11-23T19:13:24.875Z,98563.4
2022-11-23T19:19:01.149Z,98567.8
2022-11-23T19:24:40.584Z,98581.2
2022-11-23T19:30:18.136Z,98583
2022-11-23T19:35:54.266Z,98586.2
2022-11-23T19:41:32.224Z,98593.2
2022-11-23T19:47:23.142Z,98595.8
2022-11-23T19:53:13.703Z,98601.3
2022-11-23T19:58:51.482Z,98601
2022-11-23T20:04:28.236Z,98612.2
2022-11-23T20:10:05.215Z,98619.6
2022-11-23T20:15:42.328Z,98636.1
2022-11-23T20:21:29.567Z,98645.6
2022-11-23T20:27:08.984Z,98639.1
2022-11-23T20:33:08.948Z,98640.9
2022-11-23T20:39:02.455Z,98647.8
2022-11-23T20:44:39.680Z,98656.4
2022-11-23T20:50:18.897Z,98669.9
2022-11-23T20:55:56.627Z,98677.1
2022-11-23T21:01:32.170Z,98681.5
2022-11-23T21:07:09.789Z,98665.1
2022-11-23T21:12:51.010Z,98665.5
2022-11-23T21:18:26.195Z,98676.7
2022-11-23T21:24:08.990Z,98676.5
2022-11-23T21:29:49.078Z,98692.6
2022-11-23T21:35:25.009Z,98698.4
2022-11-23T21:41:54.705Z,98703.6
2022-11-23T21:47:53.924Z,98717.1
2022-11-23T21:53:39.472Z,98707.2
2022-11-23T21:59:15.521Z,98697.4
2022-11-23T22:05:14.430Z,98708.8
2022-11-23T22:10:56.979Z,98717.4
2022-11-23T22:16:32.345Z,98721.2
2022-11-23T22:22:08.183Z,98719.6
2022-11-23T22:27:43.071Z,98712.9
2022-11-23T22:33:25.471Z,98714.8
2022-11-23T22:39:10.569Z,98706.2
2022-11-23T22:45:07.373Z,98703.6
2022-11-23T22:50:42.732Z,98704.7
2022-11-23T22:56:20.843Z,98699.4
2022-11-23T23:02:00.011Z,98686.7
2022-11-23T23:07:56.699Z,98692.6
2022-11-23T23:14:02.103Z,98684.8
2022-11-23T23:19:54.429Z,98683.1
2022-11-23T23:25:31.912Z,98678.6
2022-11-23T23:31:33.804Z,98672.7
2022-11-23T23:37:09.820Z,98670
2022-11-23T23:42:44.995Z,98669.7
2022-11-23T23:48:41.771Z,98667
2022-11-23T23:54:14.141Z,98663.8
2022-11-23T23:59:51.206Z,98664.8
